Time;durP1;ratioP1;P1;durP2;ratioP2;P2;SDS_P1;SDS_P2;PMS_P1;PMS_P2;Temp;Humidity;BMP_temperature;BMP_pressure;BME280_temperature;BME280_humidity;BME280_pressure;Samples;Min_cycle;Max_cycle;Signal;HPM_P1;HPM_P2
2023/10/11 00:00:33;;;;;;;2.43;1.50;;;16.20;99.90;;;;;;5095208;28;20028;-67
2023/10/11 00:03:06;;;;;;;2.30;2.10;;;16.20;99.90;;;;;;5113905;28;20096;-67
2023/10/11 00:05:41;;;;;;;2.40;1.60;;;16.20;99.90;;;;;;5095354;28;20043;-67
2023/10/11 00:08:08;;;;;;;2.90;2.10;;;16.20;99.90;;;;;;5113571;28;20088;-67
2023/10/11 00:10:42;;;;;;;3.67;2.33;;;16.10;99.90;;;;;;5095660;28;20494;-67
2023/10/11 00:13:15;;;;;;;2.30;1.80;;;16.10;99.90;;;;;;5113763;28;20039;-67
2023/10/11 00:15:48;;;;;;;1.90;1.67;;;16.10;99.90;;;;;;5113801;28;20028;-67
2023/10/11 00:18:17;;;;;;;1.95;1.80;;;16.10;99.90;;;;;;5095248;28;20119;-67
2023/10/11 00:23:08;;;;;;;2.70;2.15;;;16.10;99.90;;;;;;5113642;28;20052;-67
2023/10/11 00:25:34;;;;;;;2.60;1.85;;;16.10;99.90;;;;;;5113772;28;20448;-67
2023/10/11 00:28:00;;;;;;;2.25;1.73;;;16.10;99.90;;;;;;5095115;28;20036;-67
2023/10/11 00:30:29;;;;;;;5.45;2.05;;;16.10;99.90;;;;;;5095156;28;20055;-67
2023/10/11 00:32:55;;;;;;;2.92;1.88;;;16.10;99.90;;;;;;5113580;28;20042;-67
2023/10/11 00:35:24;;;;;;;3.03;2.33;;;16.00;99.90;;;;;;5095002;28;20043;-67
2023/10/11 00:37:54;;;;;;;3.05;2.00;;;16.00;99.90;;;;;;5113526;28;20090;-67
2023/10/11 00:40:32;;;;;;;4.05;1.98;;;16.00;99.90;;;;;;5078196;28;20127;-67
2023/10/11 00:43:01;;;;;;;2.47;2.15;;;16.00;99.90;;;;;;5113578;28;20047;-67
2023/10/11 00:45:30;;;;;;;2.42;2.13;;;16.00;99.90;;;;;;5094988;28;20086;-67
2023/10/11 00:47:59;;;;;;;3.40;2.03;;;16.00;99.90;;;;;;5094911;28;20460;-67
2023/10/11 00:50:26;;;;;;;4.32;2.35;;;16.20;99.90;;;;;;5113361;28;20065;-67
2023/10/11 00:52:55;;;;;;;3.30;1.95;;;16.00;99.90;;;;;;5095271;28;20043;-67
2023/10/11 00:55:23;;;;;;;2.42;1.83;;;16.00;99.90;;;;;;5078403;28;20058;-68
2023/10/11 00:57:50;;;;;;;2.20;1.98;;;16.00;99.90;;;;;;5113030;28;20116;-67
2023/10/11 01:00:21;;;;;;;2.45;2.22;;;16.00;99.90;;;;;;5113351;28;20478;-67
2023/10/11 01:02:50;;;;;;;2.75;1.98;;;15.90;99.90;;;;;;5094762;28;20075;-67
2023/10/11 01:05:17;;;;;;;1.85;1.65;;;15.90;99.90;;;;;;5094620;28;20070;-67
2023/10/11 01:07:44;;;;;;;2.10;1.90;;;15.90;99.90;;;;;;5113211;28;20051;-67
2023/10/11 01:10:10;;;;;;;3.58;2.28;;;15.90;99.90;;;;;;5112968;28;20035;-67
2023/10/11 01:12:38;;;;;;;3.17;2.35;;;15.90;99.90;;;;;;5114564;28;20044;-67
2023/10/11 01:15:11;;;;;;;4.72;2.90;;;15.90;99.90;;;;;;5099055;28;20039;-67
2023/10/11 01:17:38;;;;;;;2.65;1.85;;;15.90;99.90;;;;;;5098657;28;20079;-67
2023/10/11 01:20:14;;;;;;;2.45;1.85;;;15.90;99.90;;;;;;5117151;28;20411;-67
2023/10/11 01:22:43;;;;;;;2.78;2.33;;;15.90;99.90;;;;;;5098959;28;20078;-67
2023/10/11 01:25:18;;;;;;;3.28;2.47;;;15.80;99.90;;;;;;5098910;28;20463;-67
2023/10/11 01:27:47;;;;;;;2.13;1.67;;;15.80;99.90;;;;;;5081693;28;20487;-67
2023/10/11 01:30:14;;;;;;;2.20;1.90;;;15.80;99.90;;;;;;5098657;28;20039;-67
2023/10/11 01:32:42;;;;;;;3.13;2.42;;;15.80;99.90;;;;;;5116567;28;20047;-67
2023/10/11 01:35:19;;;;;;;4.60;2.72;;;15.80;99.90;;;;;;5116560;28;20039;-67
2023/10/11 01:37:49;;;;;;;3.65;2.65;;;15.80;99.90;;;;;;5098223;28;20043;-67
2023/10/11 01:40:20;;;;;;;4.05;2.40;;;15.80;99.90;;;;;;5098315;28;20046;-67
2023/10/11 01:42:49;;;;;;;3.40;2.25;;;15.80;99.90;;;;;;5116671;28;20156;-67
2023/10/11 01:45:17;;;;;;;3.17;2.42;;;15.80;99.90;;;;;;5098173;28;20043;-67
2023/10/11 01:47:45;;;;;;;3.10;2.63;;;15.70;99.90;;;;;;5116579;28;20568;-67
2023/10/11 01:50:16;;;;;;;4.15;2.80;;;15.70;99.90;;;;;;5081022;28;20572;-67
2023/10/11 01:52:42;;;;;;;3.08;2.40;;;15.70;99.90;;;;;;5098219;28;20035;-66
2023/10/11 01:55:13;;;;;;;2.15;1.95;;;15.70;99.90;;;;;;5116512;28;20127;-65
2023/10/11 01:57:45;;;;;;;3.72;2.33;;;15.70;99.90;;;;;;5098070;28;20168;-66
2023/10/11 02:00:14;;;;;;;2.95;2.00;;;15.70;99.90;;;;;;5097828;28;20105;-66
2023/10/11 02:02:55;;;;;;;3.05;2.65;;;15.70;99.90;;;;;;5116160;28;20047;-66
2023/10/11 02:05:22;;;;;;;3.22;2.22;;;15.60;99.90;;;;;;5097668;28;20075;-66
2023/10/11 02:07:47;;;;;;;3.53;2.70;;;15.70;99.90;;;;;;5097576;28;20049;-65
2023/10/11 02:10:13;;;;;;;3.45;2.40;;;15.70;99.90;;;;;;5116179;28;20043;-65
2023/10/11 02:12:44;;;;;;;2.60;2.30;;;15.60;99.90;;;;;;5097668;28;20032;-65
2023/10/11 02:15:21;;;;;;;3.80;2.63;;;15.70;99.90;;;;;;5116064;28;20032;-66
2023/10/11 02:17:48;;;;;;;2.60;2.20;;;15.60;99.90;;;;;;5115990;28;20047;-66
2023/10/11 02:20:15;;;;;;;3.17;2.63;;;15.70;99.90;;;;;;5115687;28;20047;-65
2023/10/11 02:22:44;;;;;;;2.80;2.33;;;15.70;99.90;;;;;;5097420;28;20047;-66
2023/10/11 02:25:14;;;;;;;4.07;3.10;;;15.60;99.90;;;;;;5115092;28;20093;-66
2023/10/11 02:27:41;;;;;;;3.65;2.85;;;15.70;99.90;;;;;;5097282;28;20122;-66
2023/10/11 02:30:13;;;;;;;2.92;2.35;;;15.60;99.90;;;;;;5097441;28;20032;-66
2023/10/11 02:32:42;;;;;;;3.22;2.58;;;15.60;99.90;;;;;;5115844;28;20478;-66
2023/10/11 02:35:13;;;;;;;3.90;2.90;;;15.60;99.90;;;;;;5097075;28;20096;-66
2023/10/11 02:37:40;;;;;;;2.95;2.55;;;15.60;99.90;;;;;;5114394;28;20483;-66
2023/10/11 02:40:08;;;;;;;3.10;2.80;;;15.90;99.90;;;;;;5115593;28;20407;-66
2023/10/11 02:42:37;;;;;;;2.90;2.60;;;15.60;99.90;;;;;;5115341;28;20046;-66
2023/10/11 02:45:07;;;;;;;3.55;2.42;;;15.60;99.90;;;;;;5097026;28;20039;-65
2023/10/11 02:47:36;;;;;;;4.25;2.80;;;15.60;99.90;;;;;;5096871;28;20514;-65
2023/10/11 02:50:05;;;;;;;3.45;2.97;;;15.70;99.90;;;;;;5115055;28;20118;-66
2023/10/11 02:52:37;;;;;;;3.17;2.40;;;15.60;99.90;;;;;;5115396;28;20038;-66
2023/10/11 02:57:44;;;;;;;3.50;2.53;;;15.70;99.90;;;;;;5115280;28;20043;-66
2023/10/11 03:00:21;;;;;;;3.22;2.92;;;15.60;99.90;;;;;;5096621;28;20049;-66
2023/10/11 03:03:00;;;;;;;4.75;2.85;;;15.60;99.90;;;;;;5115170;28;20490;-65
2023/10/11 03:05:27;;;;;;;5.20;3.30;;;15.60;99.90;;;;;;5096569;28;20063;-66
2023/10/11 03:08:13;;;;;;;5.22;3.15;;;16.40;99.90;;;;;;5096507;28;20081;-66
2023/10/11 03:10:43;;;;;;;4.95;2.75;;;15.60;99.90;;;;;;5096456;28;20035;-66
2023/10/11 03:13:11;;;;;;;3.75;3.17;;;15.60;99.90;;;;;;5114672;28;20032;-67
2023/10/11 03:15:38;;;;;;;3.30;2.90;;;15.60;99.90;;;;;;5096376;28;20040;-67
2023/10/11 03:18:06;;;;;;;4.93;3.15;;;15.50;99.90;;;;;;5114536;28;20047;-67
2023/10/11 03:20:36;;;;;;;5.38;3.88;;;15.60;99.90;;;;;;5079755;28;20100;-67
2023/10/11 03:23:10;;;;;;;3.13;2.78;;;15.60;99.90;;;;;;5096528;28;20044;-67
2023/10/11 03:25:46;;;;;;;2.72;2.40;;;15.60;99.90;;;;;;5114718;28;20047;-67
2023/10/11 03:28:14;;;;;;;3.47;2.75;;;15.50;99.90;;;;;;5096284;28;20541;-67
2023/10/11 03:30:42;;;;;;;4.28;2.75;;;15.50;99.90;;;;;;5096227;28;20050;-67
2023/10/11 03:33:08;;;;;;;6.55;3.72;;;15.50;99.90;;;;;;5096024;28;20084;-66
2023/10/11 03:35:38;;;;;;;4.80;2.85;;;15.50;99.90;;;;;;5079019;28;20042;-66
2023/10/11 03:38:16;;;;;;;3.05;2.30;;;15.50;99.90;;;;;;5114155;28;20050;-66
2023/10/11 03:40:54;;;;;;;4.40;3.40;;;15.50;99.90;;;;;;5114442;28;20399;-66
2023/10/11 03:43:20;;;;;;;3.60;2.88;;;15.50;99.90;;;;;;5095815;28;20043;-66
2023/10/11 03:45:56;;;;;;;3.70;2.92;;;15.50;99.90;;;;;;5095681;28;20134;-67
2023/10/11 03:48:27;;;;;;;3.42;3.13;;;15.70;99.90;;;;;;5114216;28;20472;-66
2023/10/11 03:50:54;;;;;;;2.92;2.63;;;15.50;99.90;;;;;;5078939;28;20035;-66
2023/10/11 03:53:20;;;;;;;2.67;2.20;;;15.50;99.90;;;;;;5113873;28;20040;-66
2023/10/11 03:55:49;;;;;;;4.43;2.80;;;15.40;99.90;;;;;;5095887;28;20039;-66
2023/10/11 03:58:52;;;;;;;4.20;2.92;;;17.60;99.90;;;;;;5113887;28;20058;-66
2023/10/11 04:03:42;;;;;;;3.42;2.60;;;15.60;99.90;;;;;;5113717;28;20054;-66
2023/10/11 04:06:14;;;;;;;3.22;2.78;;;15.60;99.90;;;;;;5113579;28;20048;-66
2023/10/11 04:09:02;;;;;;;4.18;2.83;;;15.60;99.90;;;;;;5095344;28;20051;-66
2023/10/11 04:11:37;;;;;;;3.45;2.50;;;15.60;99.90;;;;;;5079113;28;20122;-66
2023/10/11 04:14:17;;;;;;;4.13;3.10;;;15.80;99.90;;;;;;5095320;28;20039;-66
2023/10/11 04:16:44;;;;;;;2.80;1.98;;;15.60;99.90;;;;;;5078477;28;20094;-66
2023/10/11 04:19:10;;;;;;;3.03;2.72;;;15.70;99.90;;;;;;5078800;28;20051;-66
2023/10/11 04:21:53;;;;;;;4.45;2.95;;;15.70;99.90;;;;;;5113449;28;20047;-66
2023/10/11 04:24:19;;;;;;;3.38;2.58;;;15.70;99.90;;;;;;5113694;28;20047;-66
2023/10/11 04:26:53;;;;;;;2.38;2.03;;;15.60;99.90;;;;;;5113410;28;20066;-66
2023/10/11 04:29:23;;;;;;;4.88;2.85;;;15.70;99.90;;;;;;5078348;28;20036;-66
2023/10/11 04:34:33;;;;;;;4.22;2.85;;;15.70;99.90;;;;;;5095371;28;20490;-68
2023/10/11 04:37:04;;;;;;;3.78;2.75;;;15.60;99.90;;;;;;5112321;28;20506;-68
2023/10/11 04:39:33;;;;;;;5.60;3.47;;;15.60;99.90;;;;;;5113518;28;20047;-68
2023/10/11 04:42:00;;;;;;;3.20;2.70;;;15.60;99.90;;;;;;5095351;28;20051;-68
2023/10/11 04:44:42;;;;;;;3.95;2.10;;;15.60;99.90;;;;;;5113548;28;20172;-68
2023/10/11 04:47:11;;;;;;;4.85;2.97;;;15.80;99.90;;;;;;5095815;28;20071;-68
2023/10/11 04:49:37;;;;;;;5.63;3.15;;;15.50;99.90;;;;;;5117515;28;20036;-68
2023/10/11 04:52:10;;;;;;;3.42;2.78;;;15.60;99.90;;;;;;5099496;28;20035;-68
2023/10/11 04:54:36;;;;;;;4.05;3.05;;;15.60;99.90;;;;;;5099151;28;20105;-68
2023/10/11 04:57:17;;;;;;;3.47;2.97;;;15.50;99.90;;;;;;5099367;28;20086;-68
2023/10/11 04:59:43;;;;;;;2.92;2.60;;;15.60;99.90;;;;;;5099144;28;20441;-68
2023/10/11 05:02:17;;;;;;;3.72;2.90;;;15.60;99.90;;;;;;5117449;28;20096;-68
2023/10/11 05:04:44;;;;;;;3.65;2.85;;;15.60;99.90;;;;;;5117333;28;20123;-68
2023/10/11 05:07:10;;;;;;;4.32;2.65;;;15.50;99.90;;;;;;5117073;28;20038;-68
2023/10/11 05:09:39;;;;;;;3.40;2.58;;;15.50;99.90;;;;;;5098922;28;20414;-68
2023/10/11 05:14:40;;;;;;;5.22;3.50;;;15.50;99.90;;;;;;5116986;28;20043;-68
2023/10/11 05:17:58;;;;;;;5.00;3.47;;;15.50;99.90;;;;;;5117165;28;20466;-68
2023/10/11 05:19:57;;;;;;;3.53;2.90;;;15.70;99.90;;;;;;5105818;28;20110;-70
2023/10/11 05:30:06;;;;;;;4.30;2.83;;;15.40;99.90;;;;;;5116965;28;20100;-68
2023/10/11 05:32:32;;;;;;;3.28;2.65;;;15.40;99.90;;;;;;5116918;28;20160;-67
2023/10/11 05:51:27;;;;;;;3.88;2.58;;;15.40;99.90;;;;;;5098141;28;20043;-68
2023/10/11 05:53:54;;;;;;;4.60;2.70;;;15.50;99.90;;;;;;5097879;28;20492;-67
2023/10/11 05:56:23;;;;;;;3.78;2.53;;;15.40;99.90;;;;;;5116128;28;20089;-67
2023/10/11 05:58:53;;;;;;;3.90;2.42;;;15.40;99.90;;;;;;5097639;28;20047;-66
2023/10/11 06:01:21;;;;;;;4.63;3.35;;;15.40;99.90;;;;;;5098242;28;20044;-68
2023/10/11 06:03:55;;;;;;;4.88;3.70;;;15.40;99.90;;;;;;5098471;28;20027;-68
2023/10/11 06:06:32;;;;;;;3.53;2.70;;;15.40;99.90;;;;;;5097706;28;20052;-67
2023/10/11 06:08:58;;;;;;;4.60;3.17;;;15.40;99.90;;;;;;5097641;28;20424;-67
2023/10/11 06:11:29;;;;;;;5.00;3.20;;;15.40;99.90;;;;;;5116383;28;20411;-67
2023/10/11 06:13:55;;;;;;;;;;;15.40;99.90;;;;;;5098167;28;20047;-67
2023/10/11 06:16:22;;;;;;;3.88;2.67;;;15.40;99.90;;;;;;5097668;28;19916;-67
2023/10/11 06:18:59;;;;;;;3.45;3.15;;;15.40;99.90;;;;;;5115611;28;20058;-74
2023/10/11 06:21:32;;;;;;;7.15;3.83;;;15.60;99.90;;;;;;5097756;28;20043;-66
2023/10/11 06:24:03;;;;;;;3.67;2.53;;;15.40;99.90;;;;;;5097439;28;20127;-66
2023/10/11 06:26:29;;;;;;;4.82;3.13;;;15.50;99.90;;;;;;5097393;28;20043;-66
2023/10/11 06:29:07;;;;;;;3.97;3.15;;;15.50;99.90;;;;;;5115847;28;20040;-66
2023/10/11 06:31:39;;;;;;;3.50;3.10;;;15.80;99.90;;;;;;5115544;28;20084;-66
2023/10/11 06:34:15;;;;;;;4.13;2.92;;;16.10;99.90;;;;;;5097212;28;20049;-66
2023/10/11 06:36:51;;;;;;;4.32;3.30;;;15.50;99.90;;;;;;5115822;28;20038;-67
2023/10/11 06:42:35;;;;;;;3.50;3.05;;;15.60;99.90;;;;;;5115382;28;20127;-66
2023/10/11 06:44:59;;;;;;;4.38;3.10;;;15.60;99.90;;;;;;5093977;28;20048;-66
2023/10/11 06:47:35;;;;;;;5.47;3.83;;;15.60;99.90;;;;;;5115285;28;20089;-66
2023/10/11 06:50:12;;;;;;;3.95;3.13;;;15.90;99.90;;;;;;5096892;28;20385;-67
2023/10/11 06:52:43;;;;;;;4.47;2.97;;;15.70;99.90;;;;;;5114226;28;20040;-66
2023/10/11 06:57:39;;;;;;;4.22;3.30;;;15.80;99.90;;;;;;5096764;28;20043;-66
2023/10/11 07:00:20;;;;;;;3.00;2.53;;;15.80;99.90;;;;;;5115305;28;20047;-66
2023/10/11 07:02:50;;;;;;;5.60;3.78;;;15.90;99.90;;;;;;5115046;28;20042;-68
2023/10/11 07:05:20;;;;;;;5.05;3.63;;;15.90;99.90;;;;;;5114827;28;20052;-67
2023/10/11 07:07:51;;;;;;;5.03;3.58;;;15.90;99.90;;;;;;5115063;28;20040;-68
2023/10/11 07:10:33;;;;;;;5.82;3.30;;;15.90;99.90;;;;;;5095889;28;20035;-67
2023/10/11 07:13:03;;;;;;;5.13;3.80;;;16.00;99.90;;;;;;5114990;28;20032;-67
2023/10/11 07:15:40;;;;;;;4.37;3.10;;;16.00;99.90;;;;;;5115037;28;20036;-67
2023/10/11 07:18:11;;;;;;;5.10;3.40;;;16.00;99.90;;;;;;5096382;28;20062;-68
2023/10/11 07:20:49;;;;;;;;;;;16.00;99.90;;;;;;5115305;28;20551;-67
2023/10/11 07:23:19;;;;;;;4.55;2.72;;;16.10;99.90;;;;;;5114818;28;20358;-66
2023/10/11 07:25:59;;;;;;;3.90;2.90;;;16.10;99.90;;;;;;5096532;28;20052;-66
2023/10/11 07:28:35;;;;;;;5.22;3.50;;;16.10;99.90;;;;;;5096108;28;20036;-66
2023/10/11 07:31:04;;;;;;;5.28;3.30;;;16.10;99.90;;;;;;5114807;28;20483;-67
2023/10/11 07:33:31;;;;;;;3.83;3.10;;;16.10;99.90;;;;;;5096237;28;20407;-68
2023/10/11 07:35:59;;;;;;;3.88;3.00;;;16.20;99.90;;;;;;5114194;28;20039;-67
2023/10/11 07:38:33;;;;;;;5.03;3.38;;;16.50;99.90;;;;;;5114333;28;20487;-68
2023/10/11 07:41:04;;;;;;;5.55;3.13;;;16.20;99.90;;;;;;5114115;28;20047;-68
2023/10/11 07:43:32;;;;;;;6.88;4.03;;;16.20;99.90;;;;;;5114401;28;20046;-67
2023/10/11 07:46:01;;;;;;;4.10;3.70;;;16.30;99.90;;;;;;5114296;28;20046;-68
2023/10/11 07:48:30;;;;;;;4.78;3.88;;;16.20;99.90;;;;;;5095683;28;20132;-68
2023/10/11 07:50:58;;;;;;;5.50;3.80;;;16.20;99.90;;;;;;5114221;28;20035;-68
2023/10/11 07:53:25;;;;;;;7.20;3.75;;;16.30;99.90;;;;;;5113912;28;20194;-68
2023/10/11 07:55:51;;;;;;;4.22;3.47;;;16.20;99.90;;;;;;5095603;28;20046;-68
2023/10/11 07:58:26;;;;;;;4.97;3.90;;;16.20;99.90;;;;;;5114097;28;20040;-67
2023/10/11 08:00:52;;;;;;;4.72;3.35;;;16.30;99.90;;;;;;5114132;28;20044;-68
2023/10/11 08:03:17;;;;;;;3.97;3.28;;;16.30;99.90;;;;;;5114031;28;20039;-68
2023/10/11 08:05:46;;;;;;;5.53;4.10;;;16.30;99.90;;;;;;5077589;28;20059;-68
2023/10/11 08:08:15;;;;;;;4.40;3.50;;;16.30;99.90;;;;;;5073093;28;20048;-67
2023/10/11 08:10:44;;;;;;;5.05;3.90;;;16.60;99.90;;;;;;5071913;28;20127;-67
2023/10/11 08:13:26;;;;;;;6.03;3.65;;;16.30;99.90;;;;;;5073456;28;20115;-67
2023/10/11 08:15:57;;;;;;;3.95;3.55;;;16.30;99.90;;;;;;5071764;28;20040;-68
2023/10/11 08:18:23;;;;;;;4.53;3.80;;;16.30;99.90;;;;;;5073285;28;20036;-67
2023/10/11 08:20:49;;;;;;;5.68;3.78;;;16.30;99.90;;;;;;5073176;28;20037;-68
2023/10/11 08:23:28;;;;;;;4.90;3.78;;;16.30;99.90;;;;;;5072528;28;20036;-67
2023/10/11 08:25:57;;;;;;;6.35;4.18;;;16.40;99.90;;;;;;5073191;28;20399;-67
2023/10/11 08:28:34;;;;;;;5.82;4.30;;;16.30;99.90;;;;;;5073170;28;20094;-67
2023/10/11 08:31:00;;;;;;;9.18;4.78;;;16.30;99.90;;;;;;5071643;28;20459;-67
2023/10/11 08:33:30;;;;;;;4.82;4.07;;;17.00;99.90;;;;;;5073074;28;20530;-67
2023/10/11 08:35:56;;;;;;;7.00;4.65;;;16.30;99.90;;;;;;5073045;28;20040;-67
2023/10/11 08:38:25;;;;;;;5.75;4.47;;;16.30;99.90;;;;;;5073128;28;20075;-68
2023/10/11 08:40:59;;;;;;;5.72;4.55;;;16.30;99.90;;;;;;5072846;28;20059;-66
2023/10/11 08:43:25;;;;;;;5.55;4.53;;;16.30;99.90;;;;;;5072730;28;20044;-66
2023/10/11 08:46:09;;;;;;;6.93;4.18;;;16.30;99.90;;;;;;5072676;28;20079;-66
2023/10/11 08:48:38;;;;;;;5.28;3.80;;;16.30;99.90;;;;;;5071372;28;20489;-66
2023/10/11 08:51:11;;;;;;;5.32;3.78;;;16.50;99.90;;;;;;5072929;28;20084;-66
2023/10/11 08:53:54;;;;;;;5.07;3.78;;;16.40;99.90;;;;;;5072556;28;20047;-67
2023/10/11 08:56:22;;;;;;;4.03;3.13;;;16.40;99.90;;;;;;5072772;28;20032;-66
2023/10/11 08:58:51;;;;;;;4.03;3.47;;;16.40;99.90;;;;;;5071336;28;20041;-66
2023/10/11 09:01:17;;;;;;;3.88;2.97;;;16.50;99.90;;;;;;5071419;28;20044;-67
2023/10/11 09:04:00;;;;;;;3.50;3.20;;;16.50;99.90;;;;;;5072636;28;20093;-69
2023/10/11 09:06:26;;;;;;;4.50;3.80;;;16.60;99.90;;;;;;5072601;28;20127;-68
2023/10/11 09:08:52;;;;;;;4.85;3.75;;;16.60;99.90;;;;;;5105111;28;20123;-67
2023/10/11 09:11:30;;;;;;;6.68;3.22;;;16.60;99.90;;;;;;5088070;28;20032;-68
2023/10/11 09:14:09;;;;;;;5.32;3.70;;;17.00;99.90;;;;;;5072712;28;20051;-67
2023/10/11 09:16:35;;;;;;;4.07;3.42;;;16.60;99.90;;;;;;5088022;28;20109;-67
2023/10/11 09:19:06;;;;;;;4.40;3.40;;;16.70;99.90;;;;;;5072695;28;20044;-67
2023/10/11 09:21:35;;;;;;;6.10;3.75;;;16.70;99.90;;;;;;5071493;28;20041;-66
2023/10/11 09:24:03;;;;;;;4.75;3.00;;;16.80;99.90;;;;;;5054333;28;20051;-66
2023/10/11 09:26:37;;;;;;;4.75;3.22;;;16.80;99.90;;;;;;5104896;28;20049;-66
2023/10/11 09:29:04;;;;;;;4.30;2.72;;;16.90;99.90;;;;;;5072441;28;20037;-66
2023/10/11 09:31:31;;;;;;;3.38;2.55;;;16.90;99.90;;;;;;5071389;28;20036;-66
2023/10/11 09:34:04;;;;;;;4.50;3.30;;;16.90;99.90;;;;;;5106747;28;20041;-66
2023/10/11 09:36:30;;;;;;;4.15;2.58;;;17.10;99.90;;;;;;5108684;28;20452;-66
2023/10/11 09:38:56;;;;;;;6.32;3.47;;;17.10;99.90;;;;;;5108832;28;20044;-66
2023/10/11 09:41:40;;;;;;;3.33;2.42;;;16.90;99.90;;;;;;5108775;28;20516;-66
2023/10/11 09:44:12;;;;;;;4.15;2.80;;;16.90;99.90;;;;;;5076085;28;20174;-68
2023/10/11 09:46:38;;;;;;;3.65;2.85;;;16.90;99.90;;;;;;5076106;28;20056;-67
2023/10/11 09:49:12;;;;;;;3.22;2.67;;;17.30;99.90;;;;;;5075888;28;20059;-66
2023/10/11 09:51:42;;;;;;;2.92;2.63;;;16.90;99.90;;;;;;5075645;28;20129;-66
2023/10/11 09:54:16;;;;;;;3.92;2.30;;;16.90;99.90;;;;;;5075914;28;20365;-66
2023/10/11 09:57:13;;;;;;;2.90;2.10;;;17.00;99.90;;;;;;5075940;28;20051;-66
2023/10/11 09:59:59;;;;;;;3.38;2.40;;;17.00;99.90;;;;;;5075824;28;20515;-66
2023/10/11 10:02:46;;;;;;;3.38;2.05;;;17.10;99.90;;;;;;5075546;28;20040;-66
2023/10/11 10:05:12;;;;;;;2.78;1.77;;;17.30;99.90;;;;;;5107925;28;20091;-66
2023/10/11 10:07:44;;;;;;;2.53;1.95;;;17.40;99.90;;;;;;5074351;28;20036;-67
2023/10/11 10:10:11;;;;;;;1.48;1.38;;;17.50;99.90;;;;;;5075407;28;20072;-66
2023/10/11 10:12:43;;;;;;;2.42;2.00;;;17.60;99.90;;;;;;5075706;28;20090;-68
2023/10/11 10:15:20;;;;;;;2.58;2.15;;;17.70;99.90;;;;;;5075249;28;20043;-68
2023/10/11 10:18:00;;;;;;;1.70;1.60;;;17.80;99.90;;;;;;5074147;28;20055;-69
2023/10/11 10:20:41;;;;;;;2.47;1.65;;;18.00;99.90;;;;;;5075483;28;20090;-68
2023/10/11 10:23:16;;;;;;;3.20;1.70;;;18.00;99.90;;;;;;5073854;28;20107;-68
2023/10/11 10:25:49;;;;;;;1.50;1.40;;;18.00;99.90;;;;;;5075452;28;20400;-68
2023/10/11 10:28:36;;;;;;;2.40;1.55;;;18.00;99.90;;;;;;5073924;28;20083;-68
2023/10/11 10:31:11;;;;;;;2.08;1.55;;;18.00;99.90;;;;;;5057003;28;20043;-67
2023/10/11 10:33:37;;;;;;;1.63;1.33;;;18.00;99.90;;;;;;5075068;28;20041;-66
2023/10/11 10:36:18;;;;;;;1.48;1.27;;;18.10;99.90;;;;;;5075188;28;20047;-66
2023/10/11 10:41:39;;;;;;;2.83;1.50;;;18.20;99.90;;;;;;5073917;28;20125;-69
2023/10/11 10:44:05;;;;;;;1.98;1.50;;;18.20;99.90;;;;;;5073992;28;20124;-66
2023/10/11 10:46:32;;;;;;;2.53;1.60;;;18.20;99.90;;;;;;5074479;28;20131;-67
2023/10/11 10:48:58;;;;;;;2.55;1.67;;;18.20;99.90;;;;;;5073263;28;20044;-67
2023/10/11 10:51:27;;;;;;;1.95;1.55;;;18.10;99.90;;;;;;5074479;28;20082;-66
2023/10/11 10:53:53;;;;;;;2.05;1.52;;;18.10;99.90;;;;;;5073296;28;20404;-69
2023/10/11 10:56:27;;;;;;;2.20;1.17;;;18.20;99.90;;;;;;5073205;28;20039;-67
2023/10/11 10:59:12;;;;;;;1.25;1.08;;;18.20;99.90;;;;;;5073405;28;20496;-73
2023/10/11 11:01:38;;;;;;;1.60;1.40;;;18.30;99.90;;;;;;5073539;28;20102;-67
2023/10/11 11:04:08;;;;;;;2.03;1.48;;;18.30;99.90;;;;;;5074059;28;20127;-69
2023/10/11 11:06:40;;;;;;;2.03;1.33;;;18.30;99.90;;;;;;5096655;28;20054;-66
2023/10/11 11:09:14;;;;;;;1.38;1.25;;;18.50;99.90;;;;;;5115042;28;20047;-66
2023/10/11 11:11:44;;;;;;;2.45;1.40;;;18.50;99.90;;;;;;5096475;28;20074;-66
2023/10/11 11:14:13;;;;;;;1.73;1.35;;;18.60;99.90;;;;;;5096367;28;20035;-66
2023/10/11 11:16:41;;;;;;;1.40;1.30;;;18.70;99.90;;;;;;5115013;28;20395;-66
2023/10/11 11:19:17;;;;;;;1.35;1.20;;;18.80;99.90;;;;;;5096590;28;20047;-66
2023/10/11 11:21:46;;;;;;;2.03;1.33;;;19.00;99.90;;;;;;5079707;28;20039;-67
2023/10/11 11:24:27;;;;;;;3.00;1.67;;;19.10;99.90;;;;;;5096513;28;20051;-68
2023/10/11 11:26:54;;;;;;;1.20;1.10;;;19.20;99.90;;;;;;5096529;28;20050;-68
2023/10/11 11:29:32;;;;;;;1.85;1.48;;;19.10;99.90;;;;;;5096149;28;20071;-68
2023/10/11 11:31:59;;;;;;;1.70;1.30;;;19.20;99.90;;;;;;5079176;28;20031;-68
2023/10/11 11:34:34;;;;;;;2.13;1.58;;;19.20;99.90;;;;;;5096451;28;20068;-68
2023/10/11 11:37:04;;;;;;;1.67;1.58;;;19.20;99.90;;;;;;5096140;28;20036;-67
2023/10/11 11:39:36;;;;;;;1.70;1.25;;;19.30;99.90;;;;;;5096025;28;20483;-68
2023/10/11 11:42:24;;;;;;;1.55;1.45;;;19.40;99.90;;;;;;5096277;28;20119;-68
2023/10/11 11:44:51;;;;;;;2.30;1.33;;;19.30;99.90;;;;;;5095981;28;20047;-66
2023/10/11 11:47:22;;;;;;;1.50;1.40;;;19.30;99.90;;;;;;5095892;28;20083;-67
2023/10/11 11:49:48;;;;;;;1.23;1.13;;;19.30;99.90;;;;;;5112834;28;20043;-67
2023/10/11 11:52:17;;;;;;;1.50;1.25;;;19.40;99.90;;;;;;5114121;28;20115;-66
2023/10/11 11:54:43;;;;;;;1.30;1.20;;;19.50;99.90;;;;;;5095786;28;20075;-66
2023/10/11 11:57:10;;;;;;;1.20;1.10;;;19.40;99.90;;;;;;5078642;28;20096;-66
2023/10/11 11:59:37;;;;;;;2.03;0.95;;;19.40;99.90;;;;;;5079026;28;20518;-66
2023/10/11 12:02:08;;;;;;;1.60;1.33;;;19.40;99.90;;;;;;5113710;28;20047;-67
2023/10/11 12:04:36;;;;;;;2.22;1.27;;;19.50;99.90;;;;;;5113671;28;20055;-67
2023/10/11 12:07:09;;;;;;;1.60;1.30;;;19.70;99.90;;;;;;5114109;28;20081;-66
2023/10/11 12:09:35;;;;;;;2.22;1.40;;;20.40;99.90;;;;;;5114009;28;20232;-66
2023/10/11 12:12:05;;;;;;;2.10;1.50;;;19.40;99.90;;;;;;5095544;28;20036;-67
2023/10/11 12:14:37;;;;;;;1.50;1.40;;;19.50;99.90;;;;;;5113625;28;20069;-67
2023/10/11 12:17:09;;;;;;;1.52;1.40;;;19.50;99.90;;;;;;5095699;28;20096;-67
2023/10/11 12:19:41;;;;;;;1.73;1.55;;;19.50;99.90;;;;;;5113832;28;20054;-67
2023/10/11 12:22:08;;;;;;;1.20;1.10;;;19.50;99.90;;;;;;5095257;28;20047;-67
2023/10/11 12:24:35;;;;;;;1.98;1.20;;;19.50;99.90;;;;;;5113516;28;20039;-67
2023/10/11 12:27:01;;;;;;;1.30;1.10;;;19.50;99.90;;;;;;5113576;28;20046;-67
2023/10/11 12:29:26;;;;;;;1.90;1.40;;;19.50;99.90;;;;;;5095078;28;20118;-66
2023/10/11 12:31:55;;;;;;;1.70;1.33;;;19.60;99.90;;;;;;5095489;28;20080;-67
2023/10/11 12:34:24;;;;;;;1.50;1.40;;;19.70;99.90;;;;;;5113426;28;20122;-66
2023/10/11 12:36:53;;;;;;;1.60;1.05;;;19.70;99.90;;;;;;5113283;28;20035;-67
2023/10/11 12:39:25;;;;;;;2.30;1.40;;;19.70;99.90;;;;;;5095071;28;20380;-67
2023/10/11 12:41:51;;;;;;;1.52;1.25;;;19.70;99.90;;;;;;5113262;28;20445;-68
2023/10/11 12:44:18;;;;;;;1.80;1.40;;;19.70;99.90;;;;;;5095170;28;20048;-67
2023/10/11 12:46:49;;;;;;;3.05;1.60;;;19.70;99.90;;;;;;5095054;28;20043;-68
2023/10/11 12:49:15;;;;;;;1.30;1.20;;;19.60;99.90;;;;;;5113446;28;20051;-67
2023/10/11 12:51:42;;;;;;;1.92;1.23;;;19.60;99.90;;;;;;5113193;28;20036;-67
2023/10/11 12:54:20;;;;;;;2.17;1.42;;;19.70;99.90;;;;;;5095118;28;20040;-67
2023/10/11 12:56:46;;;;;;;2.03;1.63;;;19.60;99.90;;;;;;5094960;28;20138;-66
2023/10/11 12:59:15;;;;;;;2.05;1.45;;;19.60;99.90;;;;;;5078166;28;20050;-66
2023/10/11 13:01:49;;;;;;;3.38;1.60;;;19.60;99.90;;;;;;5113065;28;20067;-66
2023/10/11 13:04:24;;;;;;;2.78;1.52;;;19.60;99.90;;;;;;5113306;28;20046;-68
2023/10/11 13:06:52;;;;;;;1.50;1.20;;;19.60;99.90;;;;;;5094693;28;20126;-67
2023/10/11 13:09:27;;;;;;;1.50;1.20;;;19.50;99.90;;;;;;5097614;28;20043;-68
2023/10/11 13:11:56;;;;;;;1.40;1.30;;;19.50;99.90;;;;;;5117173;28;20080;-68
2023/10/11 13:14:22;;;;;;;2.08;1.65;;;19.50;99.90;;;;;;5082256;28;20127;-66
2023/10/11 13:16:53;;;;;;;1.95;1.27;;;19.40;99.90;;;;;;5117315;28;20027;-67
2023/10/11 13:19:20;;;;;;;1.52;1.13;;;19.40;99.90;;;;;;5117278;28;20067;-67
2023/10/11 13:21:50;;;;;;;1.15;1.05;;;19.30;99.90;;;;;;5117272;28;20395;-66
2023/10/11 13:24:21;;;;;;;1.23;1.13;;;19.40;99.90;;;;;;5117225;28;20039;-67
2023/10/11 13:26:48;;;;;;;1.70;1.10;;;19.50;99.90;;;;;;5098599;28;20258;-66
2023/10/11 13:29:16;;;;;;;1.35;1.20;;;19.50;99.90;;;;;;5098482;28;20036;-67
2023/10/11 13:31:47;;;;;;;1.92;1.40;;;19.50;99.90;;;;;;5116708;28;20042;-67
2023/10/11 13:34:16;;;;;;;1.38;1.27;;;19.60;99.90;;;;;;5098531;28;20047;-67
2023/10/11 13:36:42;;;;;;;1.25;1.10;;;19.70;99.90;;;;;;5115494;28;20043;-67
2023/10/11 13:39:25;;;;;;;1.90;1.40;;;19.80;99.90;;;;;;5081409;28;20097;-67
2023/10/11 13:41:58;;;;;;;2.38;1.10;;;19.90;99.90;;;;;;5116885;28;20044;-67
2023/10/11 13:44:25;;;;;;;2.25;1.30;;;19.90;99.90;;;;;;5098237;28;20040;-67
2023/10/11 13:46:53;;;;;;;4.72;1.42;;;19.90;99.90;;;;;;5115342;28;20123;-67
2023/10/11 13:49:26;;;;;;;1.33;1.10;;;19.90;99.90;;;;;;5098094;28;20459;-67
2023/10/11 13:52:01;;;;;;;1.13;1.00;;;19.80;99.90;;;;;;5116595;28;20039;-66